createdAt,value
2017-05-13T00:00:07.018Z,1002.46
2017-05-13T00:00:47.588Z,1002.49
2017-05-13T00:01:28.193Z,1002.47
2017-05-13T00:02:08.774Z,1002.49
2017-05-13T00:02:49.357Z,1002.49
2017-05-13T00:03:29.968Z,1002.47
2017-05-13T00:04:10.581Z,1002.47
2017-05-13T00:04:51.175Z,1002.45
2017-05-13T00:05:31.760Z,1002.43
2017-05-13T00:06:12.345Z,1002.47
2017-05-13T00:06:52.963Z,1002.46
2017-05-13T00:07:33.561Z,1002.44
2017-05-13T00:08:14.189Z,1002.45
2017-05-13T00:08:54.808Z,1002.46
2017-05-13T00:09:35.448Z,1002.46
2017-05-13T00:10:16.058Z,1002.45
2017-05-13T00:10:56.699Z,1002.46
2017-05-13T00:11:37.289Z,1002.47
2017-05-13T00:12:17.907Z,1002.46
2017-05-13T00:12:58.551Z,1002.46
2017-05-13T00:13:39.146Z,1002.46
2017-05-13T00:14:19.750Z,1002.45
2017-05-13T00:15:00.337Z,1002.46
2017-05-13T00:15:40.903Z,1002.43
2017-05-13T00:16:21.494Z,1002.43
2017-05-13T00:17:02.092Z,1002.44
2017-05-13T00:17:42.668Z,1002.44
2017-05-13T00:18:23.253Z,1002.42
2017-05-13T00:19:03.817Z,1002.47
2017-05-13T00:19:44.410Z,1002.44
2017-05-13T00:20:25.024Z,1002.46
2017-05-13T00:21:05.595Z,1002.44
2017-05-13T00:21:46.182Z,1002.42
2017-05-13T00:22:26.774Z,1002.42
2017-05-13T00:23:07.349Z,1002.45
2017-05-13T00:23:47.923Z,1002.45
2017-05-13T00:24:28.531Z,1002.47
2017-05-13T00:25:09.134Z,1002.45
2017-05-13T00:25:49.733Z,1002.48
2017-05-13T00:26:30.321Z,1002.48
2017-05-13T00:27:10.904Z,1002.5
2017-05-13T00:27:51.493Z,1002.47
2017-05-13T00:28:32.066Z,1002.45
2017-05-13T00:29:12.786Z,1002.46
2017-05-13T00:29:53.334Z,1002.48
2017-05-13T00:30:33.902Z,1002.47
2017-05-13T00:31:14.514Z,1002.48
2017-05-13T00:31:55.139Z,1002.47
2017-05-13T00:32:35.749Z,1002.43
2017-05-13T00:33:16.317Z,1002.43
2017-05-13T00:33:56.900Z,1002.46
2017-05-13T00:34:37.483Z,1002.42
2017-05-13T00:35:18.062Z,1002.43
2017-05-13T00:35:58.649Z,1002.4
2017-05-13T00:36:39.290Z,1002.45
2017-05-13T00:37:19.869Z,1002.42
2017-05-13T00:38:00.441Z,1002.43
2017-05-13T00:38:41.038Z,1002.45
2017-05-13T00:39:21.630Z,1002.44
2017-05-13T00:40:02.200Z,1002.4
2017-05-13T00:40:42.769Z,1002.44
2017-05-13T00:41:23.361Z,1002.43
2017-05-13T00:42:03.934Z,1002.5
2017-05-13T00:42:44.581Z,1002.47
2017-05-13T00:43:25.163Z,1002.45
2017-05-13T00:44:05.751Z,1002.47
2017-05-13T00:44:46.329Z,1002.45
2017-05-13T00:45:26.947Z,1002.45
2017-05-13T00:46:07.548Z,1002.44
2017-05-13T00:46:48.150Z,1002.37
2017-05-13T00:47:28.752Z,1002.38
2017-05-13T00:48:09.345Z,1002.37
2017-05-13T00:48:49.971Z,1002.35
2017-05-13T00:49:30.532Z,1002.35
2017-05-13T00:50:11.150Z,1002.32
2017-05-13T00:50:51.773Z,1002.34
2017-05-13T00:51:32.395Z,1002.34
2017-05-13T00:52:13.027Z,1002.33
2017-05-13T00:52:53.574Z,1002.35
2017-05-13T00:53:34.145Z,1002.36
2017-05-13T00:54:14.769Z,1002.35
2017-05-13T00:54:55.375Z,1002.32
2017-05-13T00:55:35.941Z,1002.36
2017-05-13T00:56:16.536Z,1002.29
2017-05-13T00:56:57.109Z,1002.32
2017-05-13T00:57:37.684Z,1002.33
2017-05-13T00:58:18.291Z,1002.35
2017-05-13T00:58:58.881Z,1002.33
2017-05-13T00:59:39.484Z,1002.35
2017-05-13T01:00:20.072Z,1002.35
2017-05-13T01:01:00.646Z,1002.36
2017-05-13T01:01:41.247Z,1002.38
2017-05-13T01:02:21.824Z,1002.36
2017-05-13T01:03:02.444Z,1002.38
2017-05-13T01:03:42.986Z,1002.42
2017-05-13T01:04:23.552Z,1002.39
2017-05-13T01:05:04.148Z,1002.37
2017-05-13T01:05:44.737Z,1002.4
2017-05-13T01:06:25.353Z,1002.39
2017-05-13T01:07:05.930Z,1002.37
2017-05-13T01:07:46.535Z,1002.34
2017-05-13T01:08:27.130Z,1002.33
2017-05-13T01:09:07.710Z,1002.38
2017-05-13T01:09:48.335Z,1002.35
2017-05-13T01:10:28.919Z,1002.36
2017-05-13T01:11:09.549Z,1002.36
2017-05-13T01:11:50.153Z,1002.36
2017-05-13T01:12:30.729Z,1002.33
2017-05-13T01:13:11.294Z,1002.35
2017-05-13T01:13:51.890Z,1002.33
2017-05-13T01:14:32.470Z,1002.33
2017-05-13T01:15:13.077Z,1002.34
2017-05-13T01:15:53.647Z,1002.34
2017-05-13T01:16:34.254Z,1002.38
2017-05-13T01:17:14.838Z,1002.38
2017-05-13T01:17:55.440Z,1002.34
2017-05-13T01:18:36.040Z,1002.34
2017-05-13T01:19:16.631Z,1002.31
2017-05-13T01:19:57.239Z,1002.31
2017-05-13T01:20:37.809Z,1002.35
2017-05-13T01:21:18.411Z,1002.33
2017-05-13T01:21:59.014Z,1002.32
2017-05-13T01:22:39.583Z,1002.32
2017-05-13T01:23:20.185Z,1002.3
2017-05-13T01:24:00.768Z,1002.32
2017-05-13T01:24:41.367Z,1002.29
2017-05-13T01:25:21.945Z,1002.27
2017-05-13T01:26:02.556Z,1002.33
2017-05-13T01:26:43.134Z,1002.31
2017-05-13T01:27:23.731Z,1002.29
2017-05-13T01:28:04.321Z,1002.3
2017-05-13T01:28:44.926Z,1002.3
2017-05-13T01:29:25.544Z,1002.33
2017-05-13T01:30:06.098Z,1002.33
2017-05-13T01:30:46.680Z,1002.28
2017-05-13T01:31:27.265Z,1002.31
2017-05-13T01:32:07.893Z,1002.3
2017-05-13T01:32:48.491Z,1002.33
2017-05-13T01:33:29.120Z,1002.34
2017-05-13T01:34:09.718Z,1002.34
2017-05-13T01:34:50.292Z,1002.32
2017-05-13T01:35:30.915Z,1002.32
2017-05-13T01:36:11.526Z,1002.3
2017-05-13T01:36:52.122Z,1002.29
2017-05-13T01:37:32.704Z,1002.34
2017-05-13T01:38:13.273Z,1002.34
2017-05-13T01:38:53.873Z,1002.31
2017-05-13T01:39:34.452Z,1002.35
2017-05-13T01:40:15.093Z,1002.32
2017-05-13T01:40:55.674Z,1002.36
2017-05-13T01:41:36.240Z,1002.32
2017-05-13T01:42:16.815Z,1002.31
2017-05-13T01:42:57.385Z,1002.34
2017-05-13T01:43:37.991Z,1002.31
2017-05-13T01:44:18.608Z,1002.3
2017-05-13T01:44:59.188Z,1002.34
2017-05-13T01:45:39.766Z,1002.33
2017-05-13T01:46:20.392Z,1002.35
2017-05-13T01:47:01.156Z,1002.29
2017-05-13T01:47:41.737Z,1002.31
2017-05-13T01:48:22.322Z,1002.28
2017-05-13T01:49:02.910Z,1002.31
2017-05-13T01:49:43.560Z,1002.3
2017-05-13T01:50:24.158Z,1002.34
2017-05-13T01:51:04.739Z,1002.32
2017-05-13T01:51:45.320Z,1002.29
2017-05-13T01:52:25.903Z,1002.36
2017-05-13T01:53:06.479Z,1002.35
2017-05-13T01:53:47.099Z,1002.34
2017-05-13T01:54:27.693Z,1002.31
2017-05-13T01:55:08.278Z,1002.4
2017-05-13T01:55:48.862Z,1002.42
2017-05-13T01:56:29.464Z,1002.39
2017-05-13T01:57:10.075Z,1002.38
2017-05-13T01:57:50.663Z,1002.38
2017-05-13T01:58:31.253Z,1002.35
2017-05-13T01:59:11.833Z,1002.38
2017-05-13T01:59:52.423Z,1002.43
2017-05-13T02:00:33.004Z,1002.41
2017-05-13T02:01:13.572Z,1002.43
2017-05-13T02:01:54.161Z,1002.39
2017-05-13T02:02:34.750Z,1002.43
2017-05-13T02:03:15.371Z,1002.42
2017-05-13T02:03:55.958Z,1002.45
2017-05-13T02:04:36.533Z,1002.4
2017-05-13T02:05:17.108Z,1002.46
2017-05-13T02:05:57.684Z,1002.45
2017-05-13T02:06:38.267Z,1002.47
2017-05-13T02:07:18.869Z,1002.47
2017-05-13T02:07:59.435Z,1002.43
2017-05-13T02:08:40.018Z,1002.46
2017-05-13T02:09:20.629Z,1002.46
2017-05-13T02:10:01.221Z,1002.49
2017-05-13T02:10:41.822Z,1002.5
2017-05-13T02:11:22.424Z,1002.46
2017-05-13T02:12:03.002Z,1002.5
2017-05-13T02:12:43.624Z,1002.49
2017-05-13T02:13:24.288Z,1002.48
2017-05-13T02:14:04.877Z,1002.52
2017-05-13T02:14:45.466Z,1002.54
2017-05-13T02:15:26.077Z,1002.54
2017-05-13T02:16:06.667Z,1002.53
2017-05-13T02:16:47.341Z,1002.55
2017-05-13T02:17:27.899Z,1002.55
2017-05-13T02:18:08.494Z,1002.57
2017-05-13T02:18:49.071Z,1002.56
2017-05-13T02:19:29.693Z,1002.61
2017-05-13T02:20:10.297Z,1002.6
2017-05-13T02:20:50.900Z,1002.63
2017-05-13T02:21:31.508Z,1002.64
2017-05-13T02:22:12.110Z,1002.6
2017-05-13T02:22:52.691Z,1002.59
2017-05-13T02:23:33.276Z,1002.67
2017-05-13T02:24:13.868Z,1002.67
2017-05-13T02:24:54.457Z,1002.66
2017-05-13T02:25:35.046Z,1002.71
2017-05-13T02:26:15.635Z,1002.68
2017-05-13T02:26:56.206Z,1002.73
2017-05-13T02:27:36.802Z,1002.73
2017-05-13T02:28:17.403Z,1002.71
2017-05-13T02:28:58.001Z,1002.71
2017-05-13T02:29:38.611Z,1002.72
2017-05-13T02:30:19.203Z,1002.77
2017-05-13T02:30:59.818Z,1002.69
2017-05-13T02:31:40.433Z,1002.74
2017-05-13T02:32:21.051Z,1002.72
2017-05-13T02:33:01.626Z,1002.75
2017-05-13T02:33:42.220Z,1002.74
2017-05-13T02:34:22.800Z,1002.73
2017-05-13T02:35:03.367Z,1002.71
2017-05-13T02:35:43.959Z,1002.74
2017-05-13T02:36:24.528Z,1002.71
2017-05-13T02:37:05.149Z,1002.73
2017-05-13T02:37:45.737Z,1002.71
2017-05-13T02:38:26.417Z,1002.69
2017-05-13T02:39:06.940Z,1002.69
2017-05-13T02:39:47.648Z,1002.68
2017-05-13T02:40:28.250Z,1002.7
2017-05-13T02:41:08.897Z,1002.69
2017-05-13T02:41:49.697Z,1002.7
2017-05-13T02:42:30.353Z,1002.72
2017-05-13T02:43:10.971Z,1002.71
2017-05-13T02:43:51.580Z,1002.7
2017-05-13T02:44:32.241Z,1002.7
2017-05-13T02:45:13.550Z,1002.72
2017-05-13T02:45:53.831Z,1002.72
2017-05-13T02:46:34.460Z,1002.72
2017-05-13T02:47:15.078Z,1002.71
2017-05-13T02:47:56.257Z,1002.75
2017-05-13T02:48:36.535Z,1002.74
2017-05-13T02:49:17.186Z,1002.68
2017-05-13T02:49:57.913Z,1002.76
2017-05-13T02:50:38.548Z,1002.7
2017-05-13T02:51:19.169Z,1002.75
2017-05-13T02:51:59.740Z,1002.77
2017-05-13T02:52:40.332Z,1002.74
2017-05-13T02:53:20.945Z,1002.72
2017-05-13T02:54:01.515Z,1002.77
2017-05-13T02:54:42.138Z,1002.75
2017-05-13T02:55:22.739Z,1002.75
2017-05-13T02:56:03.356Z,1002.73
2017-05-13T02:56:43.942Z,1002.77
2017-05-13T02:57:24.531Z,1002.81
2017-05-13T02:58:05.180Z,1002.8
2017-05-13T02:58:45.790Z,1002.82
2017-05-13T02:59:26.397Z,1002.82
2017-05-13T03:00:06.970Z,1002.8
2017-05-13T03:00:47.642Z,1002.78
2017-05-13T03:01:28.207Z,1002.82
2017-05-13T03:02:08.797Z,1002.81
2017-05-13T03:02:49.383Z,1002.83
2017-05-13T03:03:29.964Z,1002.85
2017-05-13T03:04:10.553Z,1002.84
2017-05-13T03:04:51.154Z,1002.81
2017-05-13T03:05:31.979Z,1002.82
2017-05-13T03:06:12.578Z,1002.84
2017-05-13T03:06:53.220Z,1002.86
2017-05-13T03:07:33.797Z,1002.86
2017-05-13T03:08:14.388Z,1002.81
2017-05-13T03:08:54.981Z,1002.81
2017-05-13T03:09:35.613Z,1002.88
2017-05-13T03:10:16.189Z,1002.81
2017-05-13T03:10:56.839Z,1002.82
2017-05-13T03:11:37.503Z,1002.8
2017-05-13T03:12:18.094Z,1002.81
2017-05-13T03:12:58.706Z,1002.82
2017-05-13T03:13:39.288Z,1002.81
2017-05-13T03:14:19.898Z,1002.83
2017-05-13T03:15:00.512Z,1002.8
2017-05-13T03:15:41.205Z,1002.83
2017-05-13T03:16:21.916Z,1002.79
2017-05-13T03:17:02.876Z,1002.84
2017-05-13T03:17:43.555Z,1002.82
2017-05-13T03:18:24.138Z,1002.8
2017-05-13T03:19:04.732Z,1002.82
2017-05-13T03:19:45.323Z,1002.82
2017-05-13T03:20:25.905Z,1002.88
2017-05-13T03:21:06.543Z,1002.85
2017-05-13T03:21:47.183Z,1002.9
2017-05-13T03:22:27.857Z,1002.88
2017-05-13T03:23:08.440Z,1002.88
2017-05-13T03:23:49.035Z,1002.88
2017-05-13T03:24:29.694Z,1002.85
2017-05-13T03:25:10.627Z,1002.88
2017-05-13T03:25:51.133Z,1002.91
2017-05-13T03:26:31.855Z,1002.93
2017-05-13T03:27:12.547Z,1002.94
2017-05-13T03:27:53.139Z,1002.91
2017-05-13T03:28:33.729Z,1002.93
2017-05-13T03:29:14.309Z,1002.93
2017-05-13T03:29:54.903Z,1002.97
2017-05-13T03:30:35.480Z,1002.94
2017-05-13T03:31:16.058Z,1002.97
2017-05-13T03:31:56.683Z,1002.97
2017-05-13T03:32:37.290Z,1002.99
2017-05-13T03:33:17.959Z,1002.94
2017-05-13T03:33:58.571Z,1002.98
2017-05-13T03:34:39.138Z,1002.98
2017-05-13T03:35:19.813Z,1002.97
2017-05-13T03:36:01.205Z,1002.98
2017-05-13T03:36:42.644Z,1002.98
2017-05-13T03:37:23.356Z,1002.96
2017-05-13T03:38:04.138Z,1002.94
2017-05-13T03:38:44.736Z,1002.93
2017-05-13T03:39:25.410Z,1002.95
2017-05-13T03:40:05.992Z,1002.98
2017-05-13T03:40:46.592Z,1002.98
2017-05-13T03:41:27.237Z,1002.98
2017-05-13T03:42:07.875Z,1003
2017-05-13T03:42:48.628Z,1002.98
2017-05-13T03:43:29.351Z,1003
2017-05-13T03:44:10.031Z,1002.96
2017-05-13T03:44:50.611Z,1002.96
2017-05-13T03:45:31.488Z,1002.95
2017-05-13T03:46:12.107Z,1002.99
2017-05-13T03:46:52.727Z,1002.94
2017-05-13T03:47:33.322Z,1002.98
2017-05-13T03:48:13.936Z,1002.98
2017-05-13T03:48:54.525Z,1002.98
2017-05-13T03:49:35.581Z,1003
2017-05-13T03:50:16.275Z,1003
2017-05-13T03:50:57.295Z,1002.98
2017-05-13T03:51:38.190Z,1002.98
2017-05-13T03:52:19.139Z,1002.98
2017-05-13T03:53:00.106Z,1003.02
2017-05-13T03:53:41.077Z,1003.04
2017-05-13T03:54:21.853Z,1003.02
2017-05-13T03:55:02.819Z,1003.04
2017-05-13T03:55:43.620Z,1003.05
2017-05-13T03:56:24.803Z,1003.03
2017-05-13T03:57:06.010Z,1003.05
2017-05-13T03:57:46.761Z,1003.06
2017-05-13T03:58:27.383Z,1003.04
2017-05-13T03:59:08.035Z,1003.07
2017-05-13T03:59:48.698Z,1003.03
2017-05-13T04:00:29.376Z,1003.09
2017-05-13T04:01:09.971Z,1003.1
2017-05-13T04:01:50.682Z,1003.13
2017-05-13T04:02:31.257Z,1003.09
2017-05-13T04:03:11.864Z,1003.15
2017-05-13T04:03:52.497Z,1003.16
2017-05-13T04:04:33.097Z,1003.12
2017-05-13T04:05:13.691Z,1003.12
2017-05-13T04:05:54.276Z,1003.15
2017-05-13T04:06:34.869Z,1003.12
2017-05-13T04:07:15.609Z,1003.16
2017-05-13T04:07:56.565Z,1003.12
2017-05-13T04:08:37.317Z,1003.12
2017-05-13T04:09:18.034Z,1003.17
2017-05-13T04:09:58.642Z,1003.11
2017-05-13T04:10:39.255Z,1003.14
2017-05-13T04:11:19.943Z,1003.14
2017-05-13T04:12:00.698Z,1003.14
2017-05-13T04:12:41.386Z,1003.15
2017-05-13T04:13:22.070Z,1003.15
2017-05-13T04:14:02.735Z,1003.13
2017-05-13T04:14:43.324Z,1003.13
2017-05-13T04:15:23.996Z,1003.12
2017-05-13T04:16:05.020Z,1003.12
2017-05-13T04:16:45.783Z,1003.14
2017-05-13T04:17:26.444Z,1003.15
2017-05-13T04:18:07.033Z,1003.16
2017-05-13T04:18:47.622Z,1003.11
2017-05-13T04:19:28.409Z,1003.17
2017-05-13T04:20:09.265Z,1003.16
2017-05-13T04:20:50.279Z,1003.19
2017-05-13T04:21:31.013Z,1003.18
2017-05-13T04:22:11.717Z,1003.2
2017-05-13T04:22:52.760Z,1003.19
2017-05-13T04:23:33.415Z,1003.2
2017-05-13T04:24:14.975Z,1003.17
2017-05-13T04:24:55.751Z,1003.21
2017-05-13T04:25:36.486Z,1003.23
2017-05-13T04:26:17.801Z,1003.23
2017-05-13T04:26:58.711Z,1003.21
2017-05-13T04:27:39.721Z,1003.22
2017-05-13T04:28:20.636Z,1003.25
2017-05-13T04:29:01.411Z,1003.22
2017-05-13T04:29:42.056Z,1003.23
2017-05-13T04:30:22.836Z,1003.22
2017-05-13T04:31:03.452Z,1003.23
2017-05-13T04:31:44.054Z,1003.28
2017-05-13T04:32:24.691Z,1003.3
2017-05-13T04:33:05.298Z,1003.26
2017-05-13T04:33:45.913Z,1003.28
2017-05-13T04:34:26.556Z,1003.29
2017-05-13T04:35:07.280Z,1003.25
2017-05-13T04:35:47.905Z,1003.29
2017-05-13T04:36:28.492Z,1003.3
2017-05-13T04:37:09.116Z,1003.32
2017-05-13T04:37:49.946Z,1003.29
2017-05-13T04:38:30.642Z,1003.29
2017-05-13T04:39:11.469Z,1003.33
2017-05-13T04:39:52.253Z,1003.3
2017-05-13T04:40:33.239Z,1003.31
2017-05-13T04:41:13.874Z,1003.31
2017-05-13T04:41:54.493Z,1003.3
2017-05-13T04:42:35.259Z,1003.38
2017-05-13T04:43:16.286Z,1003.34
2017-05-13T04:43:56.958Z,1003.31
2017-05-13T04:44:37.567Z,1003.34
2017-05-13T04:45:18.169Z,1003.35
2017-05-13T04:45:58.877Z,1003.33
2017-05-13T04:46:39.708Z,1003.34
2017-05-13T04:47:20.511Z,1003.31
2017-05-13T04:48:01.219Z,1003.3
2017-05-13T04:48:42.175Z,1003.32
2017-05-13T04:49:22.842Z,1003.28
2017-05-13T04:50:03.568Z,1003.3
2017-05-13T04:50:44.524Z,1003.34
2017-05-13T04:51:25.148Z,1003.29
2017-05-13T04:52:05.828Z,1003.33
2017-05-13T04:52:46.458Z,1003.29
2017-05-13T04:53:27.035Z,1003.28
2017-05-13T04:54:07.637Z,1003.31
2017-05-13T04:54:48.564Z,1003.3
2017-05-13T04:55:29.188Z,1003.32
2017-05-13T04:56:09.842Z,1003.31
2017-05-13T04:56:50.459Z,1003.33
2017-05-13T04:57:31.064Z,1003.33
2017-05-13T04:58:11.697Z,1003.31
2017-05-13T04:58:52.474Z,1003.35
2017-05-13T04:59:33.076Z,1003.34
2017-05-13T05:00:13.676Z,1003.36
2017-05-13T05:00:54.265Z,1003.36
2017-05-13T05:01:34.896Z,1003.31
2017-05-13T05:02:15.471Z,1003.32
2017-05-13T05:02:56.421Z,1003.36
2017-05-13T05:03:37.171Z,1003.3
2017-05-13T05:04:17.847Z,1003.3
2017-05-13T05:04:58.453Z,1003.32
2017-05-13T05:05:39.045Z,1003.32
2017-05-13T05:06:19.652Z,1003.29
2017-05-13T05:07:00.710Z,1003.31
2017-05-13T05:07:41.364Z,1003.29
2017-05-13T05:08:22.018Z,1003.36
2017-05-13T05:09:02.838Z,1003.34
2017-05-13T05:09:43.427Z,1003.32
2017-05-13T05:10:24.054Z,1003.39
2017-05-13T05:11:04.722Z,1003.41
2017-05-13T05:11:45.448Z,1003.39
2017-05-13T05:12:26.163Z,1003.4
2017-05-13T05:13:06.850Z,1003.4
2017-05-13T05:13:47.852Z,1003.4
2017-05-13T05:14:28.589Z,1003.42
2017-05-13T05:15:09.187Z,1003.39
2017-05-13T05:15:49.843Z,1003.45
2017-05-13T05:16:30.780Z,1003.44
2017-05-13T05:17:11.508Z,1003.43
2017-05-13T05:17:52.165Z,1003.45
2017-05-13T05:18:32.790Z,1003.49
2017-05-13T05:19:13.446Z,1003.51
2017-05-13T05:19:54.335Z,1003.49
2017-05-13T05:20:34.913Z,1003.51
2017-05-13T05:21:15.612Z,1003.52
2017-05-13T05:21:56.289Z,1003.52
2017-05-13T05:22:37.216Z,1003.51
2017-05-13T05:23:17.915Z,1003.57
2017-05-13T05:23:58.515Z,1003.52
2017-05-13T05:24:39.368Z,1003.54
2017-05-13T05:25:20.225Z,1003.53
2017-05-13T05:26:01.174Z,1003.52
2017-05-13T05:26:42.228Z,1003.52
2017-05-13T05:27:22.906Z,1003.58
2017-05-13T05:28:03.478Z,1003.58
2017-05-13T05:28:44.713Z,1003.6
2017-05-13T05:29:25.737Z,1003.61
2017-05-13T05:30:06.339Z,1003.61
2017-05-13T05:30:46.938Z,1003.63
2017-05-13T05:31:27.566Z,1003.62
2017-05-13T05:32:08.378Z,1003.65
2017-05-13T05:32:49.824Z,1003.66
2017-05-13T05:33:30.610Z,1003.65
2017-05-13T05:34:11.336Z,1003.65
2017-05-13T05:34:52.065Z,1003.67
2017-05-13T05:35:32.704Z,1003.67
2017-05-13T05:36:13.322Z,1003.7
2017-05-13T05:36:53.963Z,1003.71
2017-05-13T05:37:34.909Z,1003.73
2017-05-13T05:38:15.600Z,1003.71
2017-05-13T05:38:56.358Z,1003.74
2017-05-13T05:39:36.948Z,1003.74
2017-05-13T05:40:17.551Z,1003.8
2017-05-13T05:40:58.214Z,1003.78
2017-05-13T05:41:38.988Z,1003.81
2017-05-13T05:42:20.179Z,1003.81
2017-05-13T05:43:00.869Z,1003.83
2017-05-13T05:43:41.811Z,1003.84
2017-05-13T05:44:22.458Z,1003.87
2017-05-13T05:45:03.068Z,1003.85
2017-05-13T05:45:43.960Z,1003.93
2017-05-13T05:46:24.730Z,1003.92
2017-05-13T05:47:05.345Z,1003.93
2017-05-13T05:47:45.896Z,1003.95
2017-05-13T05:48:26.509Z,1003.93
2017-05-13T05:49:07.106Z,1003.96
2017-05-13T05:49:47.700Z,1003.96
2017-05-13T05:50:28.506Z,1003.96
2017-05-13T05:51:09.275Z,1003.97
2017-05-13T05:51:50.199Z,1004
2017-05-13T05:52:31.113Z,1004.03
2017-05-13T05:53:11.952Z,1004.07
2017-05-13T05:53:52.903Z,1004.02
2017-05-13T05:54:33.391Z,1004.04
2017-05-13T05:55:14.014Z,1004.05
2017-05-13T05:55:54.644Z,1004.05
2017-05-13T05:56:35.333Z,1004.05
2017-05-13T05:57:16.063Z,1004.08
2017-05-13T05:57:56.918Z,1004.09
2017-05-13T05:58:37.488Z,1004.05
2017-05-13T05:59:18.099Z,1004.11
2017-05-13T05:59:58.697Z,1004.09
2017-05-13T06:00:39.748Z,1004.11
2017-05-13T06:01:20.482Z,1004.09
2017-05-13T06:02:01.075Z,1004.11
2017-05-13T06:02:41.699Z,1004.12
2017-05-13T06:03:22.315Z,1004.15
2017-05-13T06:04:03.042Z,1004.13
2017-05-13T06:04:43.737Z,1004.19
2017-05-13T06:05:24.347Z,1004.18
2017-05-13T06:06:05.118Z,1004.18
2017-05-13T06:06:45.988Z,1004.19
2017-05-13T06:07:26.811Z,1004.19
2017-05-13T06:08:07.390Z,1004.22
2017-05-13T06:08:48.003Z,1004.22
2017-05-13T06:09:28.611Z,1004.21
2017-05-13T06:10:09.340Z,1004.25
2017-05-13T06:10:50.246Z,1004.25
2017-05-13T06:11:30.968Z,1004.23
2017-05-13T06:12:11.574Z,1004.27
2017-05-13T06:12:52.165Z,1004.23
2017-05-13T06:13:32.817Z,1004.24
2017-05-13T06:14:13.427Z,1004.2
2017-05-13T06:14:54.078Z,1004.22
2017-05-13T06:15:34.923Z,1004.24
2017-05-13T06:16:16.081Z,1004.25
2017-05-13T06:16:56.546Z,1004.26
2017-05-13T06:17:37.166Z,1004.24
2017-05-13T06:18:17.825Z,1004.24
2017-05-13T06:18:58.565Z,1004.26
2017-05-13T06:19:39.796Z,1004.28
2017-05-13T06:20:20.119Z,1004.29
2017-05-13T06:21:00.738Z,1004.25
2017-05-13T06:21:41.351Z,1004.27
2017-05-13T06:22:22.043Z,1004.3
2017-05-13T06:23:02.784Z,1004.3
2017-05-13T06:23:43.564Z,1004.3
2017-05-13T06:24:24.538Z,1004.31
2017-05-13T06:25:05.490Z,1004.31
2017-05-13T06:25:46.443Z,1004.28
2017-05-13T06:26:27.077Z,1004.29
2017-05-13T06:27:07.874Z,1004.28
2017-05-13T06:27:48.574Z,1004.33
2017-05-13T06:28:29.242Z,1004.33
2017-05-13T06:29:09.878Z,1004.34
2017-05-13T06:29:50.475Z,1004.34
2017-05-13T06:30:31.063Z,1004.32
2017-05-13T06:31:11.970Z,1004.34
2017-05-13T06:31:52.601Z,1004.35
2017-05-13T06:32:33.197Z,1004.37
2017-05-13T06:33:13.779Z,1004.38
2017-05-13T06:33:54.568Z,1004.37
2017-05-13T06:34:35.274Z,1004.32
2017-05-13T06:35:15.991Z,1004.33
2017-05-13T06:35:56.814Z,1004.34
2017-05-13T06:36:37.431Z,1004.31
2017-05-13T06:37:18.015Z,1004.38
2017-05-13T06:37:58.591Z,1004.38
2017-05-13T06:38:39.160Z,1004.38
2017-05-13T06:39:19.846Z,1004.4
2017-05-13T06:40:00.448Z,1004.41
2017-05-13T06:40:41.113Z,1004.4
2017-05-13T06:41:21.828Z,1004.39
2017-05-13T06:42:02.797Z,1004.39
2017-05-13T06:42:43.815Z,1004.42
2017-05-13T06:43:25.388Z,1004.4
2017-05-13T06:44:06.163Z,1004.42
2017-05-13T06:44:46.857Z,1004.37
2017-05-13T06:45:27.613Z,1004.4
2017-05-13T06:46:08.331Z,1004.45
2017-05-13T06:46:49.014Z,1004.45
2017-05-13T06:47:29.639Z,1004.51
2017-05-13T06:48:10.231Z,1004.48
2017-05-13T06:48:50.826Z,1004.46
2017-05-13T06:49:31.411Z,1004.47
2017-05-13T06:50:12.029Z,1004.47
2017-05-13T06:50:52.614Z,1004.45
2017-05-13T06:51:33.281Z,1004.47
2017-05-13T06:52:13.856Z,1004.48
2017-05-13T06:52:54.482Z,1004.5
2017-05-13T06:53:35.239Z,1004.5
2017-05-13T06:54:15.901Z,1004.52
2017-05-13T06:54:56.595Z,1004.53
2017-05-13T06:55:37.231Z,1004.48
2017-05-13T06:56:17.858Z,1004.53
2017-05-13T06:56:58.550Z,1004.55
2017-05-13T06:57:39.255Z,1004.53
2017-05-13T06:58:20.376Z,1004.51
2017-05-13T06:59:01.199Z,1004.54
2017-05-13T06:59:42.135Z,1004.57
2017-05-13T07:00:22.922Z,1004.57
2017-05-13T07:01:03.535Z,1004.56
2017-05-13T07:01:44.183Z,1004.58
2017-05-13T07:02:24.786Z,1004.59
2017-05-13T07:03:05.388Z,1004.6
2017-05-13T07:03:46.012Z,1004.59
2017-05-13T07:04:26.612Z,1004.62
2017-05-13T07:05:07.197Z,1004.59
2017-05-13T07:05:47.774Z,1004.62
2017-05-13T07:06:28.361Z,1004.61
2017-05-13T07:07:08.950Z,1004.67
2017-05-13T07:07:49.531Z,1004.64
2017-05-13T07:08:30.122Z,1004.66
2017-05-13T07:09:10.728Z,1004.65
2017-05-13T07:09:51.496Z,1004.71
2017-05-13T07:10:32.123Z,1004.69
2017-05-13T07:11:12.767Z,1004.69
2017-05-13T07:11:53.445Z,1004.7
2017-05-13T07:12:34.033Z,1004.72
2017-05-13T07:13:14.626Z,1004.69
2017-05-13T07:13:55.274Z,1004.72
2017-05-13T07:14:35.922Z,1004.75
2017-05-13T07:15:16.514Z,1004.72
2017-05-13T07:15:57.138Z,1004.71
2017-05-13T07:16:37.756Z,1004.74
2017-05-13T07:17:18.351Z,1004.73
2017-05-13T07:17:58.952Z,1004.8
2017-05-13T07:18:39.570Z,1004.76
2017-05-13T07:19:20.213Z,1004.77
2017-05-13T07:20:00.868Z,1004.78
2017-05-13T07:20:41.443Z,1004.83
2017-05-13T07:21:22.035Z,1004.79
2017-05-13T07:22:02.625Z,1004.81
2017-05-13T07:22:43.219Z,1004.85
2017-05-13T07:23:23.848Z,1004.85
2017-05-13T07:24:04.443Z,1004.84
2017-05-13T07:24:47.899Z,1004.83
2017-05-13T07:25:31.608Z,1004.81
2017-05-13T07:26:12.251Z,1004.82
2017-05-13T07:26:52.838Z,1004.83
2017-05-13T07:27:33.410Z,1004.85
2017-05-13T07:28:14.095Z,1004.84
2017-05-13T07:28:54.699Z,1004.83
2017-05-13T07:29:35.332Z,1004.85
2017-05-13T07:30:15.966Z,1004.8
2017-05-13T07:30:56.599Z,1004.81
2017-05-13T07:31:37.197Z,1004.84
2017-05-13T07:32:17.860Z,1004.82
2017-05-13T07:32:58.485Z,1004.82
2017-05-13T07:33:39.099Z,1004.82
2017-05-13T07:34:19.756Z,1004.84
2017-05-13T07:35:00.359Z,1004.79
2017-05-13T07:35:40.944Z,1004.84
2017-05-13T07:36:21.631Z,1004.82
2017-05-13T07:37:02.220Z,1004.8
2017-05-13T07:37:42.869Z,1004.86
2017-05-13T07:38:23.477Z,1004.82
2017-05-13T07:39:04.098Z,1004.84
2017-05-13T07:39:44.711Z,1004.82
2017-05-13T07:40:25.367Z,1004.84
2017-05-13T07:41:10.798Z,1004.83
2017-05-13T07:41:56.707Z,1004.87
2017-05-13T07:42:39.443Z,1004.88
2017-05-13T07:43:22.148Z,1004.86
2017-05-13T07:44:05.714Z,1004.87
2017-05-13T07:44:57.549Z,1004.86
2017-05-13T07:45:54.590Z,1004.89
2017-05-13T07:46:46.302Z,1004.93
2017-05-13T07:47:30.926Z,1004.91
2017-05-13T07:48:20.702Z,1004.92
2017-05-13T07:49:03.572Z,1004.96
2017-05-13T07:49:54.306Z,1005
2017-05-13T07:50:46.915Z,1004.97
2017-05-13T07:51:28.228Z,1005.01
2017-05-13T07:52:14.118Z,1005.02
2017-05-13T07:52:57.271Z,1005.06
2017-05-13T07:53:41.990Z,1005.09
2017-05-13T07:54:26.872Z,1005.09
2017-05-13T07:55:07.493Z,1005.09
2017-05-13T07:55:48.604Z,1005.12
2017-05-13T07:56:29.367Z,1005.15
2017-05-13T07:57:10.023Z,1005.13
2017-05-13T07:57:50.606Z,1005.16
2017-05-13T07:58:31.204Z,1005.18
2017-05-13T07:59:11.810Z,1005.21
2017-05-13T07:59:52.392Z,1005.24
2017-05-13T08:00:32.979Z,1005.26
2017-05-13T08:01:13.566Z,1005.29
2017-05-13T08:01:54.142Z,1005.29
2017-05-13T08:02:34.738Z,1005.28
2017-05-13T08:03:15.545Z,1005.26
2017-05-13T08:03:56.148Z,1005.25
2017-05-13T08:04:36.758Z,1005.29
2017-05-13T08:05:17.318Z,1005.29
2017-05-13T08:05:57.893Z,1005.27
2017-05-13T08:06:38.482Z,1005.29
2017-05-13T08:07:19.065Z,1005.28
2017-05-13T08:07:59.654Z,1005.36
2017-05-13T08:08:40.235Z,1005.34
2017-05-13T08:09:20.835Z,1005.36
2017-05-13T08:10:01.452Z,1005.36
2017-05-13T08:10:42.040Z,1005.37
2017-05-13T08:11:22.614Z,1005.35
2017-05-13T08:12:03.194Z,1005.37
2017-05-13T08:12:43.795Z,1005.39
2017-05-13T08:13:24.389Z,1005.42
2017-05-13T08:14:04.965Z,1005.39
2017-05-13T08:14:45.542Z,1005.44
2017-05-13T08:15:26.147Z,1005.42